Time;durP1;ratioP1;P1;durP2;ratioP2;P2;SDS_P1;SDS_P2;PMS_P1;PMS_P2;Temp;Humidity;BMP_temperature;BMP_pressure;BME280_temperature;BME280_humidity;BME280_pressure;Samples;Min_cycle;Max_cycle;Signal;HPM_P1;HPM_P2
2021/09/27 00:27:35;;;;;;;21.70;14.47;;;;;;;14.48;89.03;100963.04;22376796;77;99664;-85
2021/09/27 00:57:36;;;;;;;;;;;;;;;14.33;92.16;100947.55;22422507;77;99687;-86
2021/09/27 01:28:05;;;;;;;23.97;15.47;;;;;;;14.30;94.40;100936.46;22266505;77;86140;-87
2021/09/27 01:58:36;;;;;;;30.02;15.48;;;;;;;14.22;94.26;100951.47;21951327;78;99761;-87
2021/09/27 02:28:37;;;;;;;24.20;14.93;;;;;;;14.12;94.55;100942.48;21954157;78;99574;-86
2021/09/27 02:59:09;;;;;;;22.95;14.35;;;;;;;13.98;94.68;100927.18;22140446;78;99553;-86
2021/09/27 03:29:45;;;;;;;18.23;12.93;;;;;;;13.81;95.08;100932.84;22405209;77;99897;-87
2021/09/27 04:00:06;;;;;;;25.77;13.77;;;;;;;13.72;94.93;100918.54;22483546;77;99595;-87
2021/09/27 04:30:44;;;;;;;23.02;13.72;;;;;;;13.62;95.79;100891.60;22290519;77;99544;-86
2021/09/27 05:01:02;;;;;;;21.80;13.03;;;;;;;13.78;95.84;100882.41;22142971;78;99681;-87
2021/09/27 05:31:39;;;;;;;21.87;11.33;;;;;;;13.90;95.74;100887.60;22150417;78;99791;-83
2021/09/27 06:02:04;;;;;;;18.37;10.50;;;;;;;14.07;95.53;100893.03;22198130;78;100125;-84
2021/09/27 06:32:16;;;;;;;15.50;9.35;;;;;;;14.37;95.04;100888.82;22257240;78;189869;-84
2021/09/27 07:02:18;;;;;;;20.80;9.30;;;;;;;14.77;94.20;100909.29;22424343;77;120159;-83
2021/09/27 07:32:19;;;;;;;15.80;7.73;;;;;;;15.33;92.71;100914.11;22493177;77;99845;-85
2021/09/27 08:02:21;;;;;;;15.98;8.03;;;;;;;16.17;90.94;100909.75;22326952;76;99503;-83
2021/09/27 08:32:22;;;;;;;22.58;9.88;;;;;;;16.86;87.87;100896.70;22103856;78;100564;-83
2021/09/27 09:03:00;;;;;;;13.53;7.12;;;;;;;17.54;85.19;100916.03;22385688;77;110045;-84
2021/09/27 09:33:01;;;;;;;16.80;6.07;;;;;;;19.18;80.83;100906.16;22245232;77;102327;-82
2021/09/27 10:03:03;;;;;;;14.10;7.28;;;;;;;21.70;76.17;100886.77;22225220;76;99986;-82
2021/09/27 10:33:29;;;;;;;12.95;8.05;;;;;;;23.35;67.52;100860.69;22094720;78;99527;-85
2021/09/27 11:03:53;;;;;;;13.62;8.45;;;;;;;24.59;63.32;100836.02;22254945;77;103879;-83
2021/09/27 11:34:33;;;;;;;13.30;8.50;;;;;;;24.78;59.31;100837.03;22362927;77;99849;-83
2021/09/27 12:04:59;;;;;;;14.23;7.83;;;;;;;24.32;59.97;100826.80;22463918;77;118693;-81
2021/09/27 12:35:05;;;;;;;13.28;8.48;;;;;;;23.80;60.53;100810.48;22455860;77;99542;-80
2021/09/27 13:05:14;;;;;;;13.28;7.72;;;;;;;23.59;60.12;100795.19;22266722;77;99528;-81
2021/09/27 13:35:24;;;;;;;10.60;7.30;;;;;;;23.33;61.04;100775.46;22311631;77;100423;-81
2021/09/27 14:05:26;;;;;;;16.62;9.15;;;;;;;22.76;61.37;100772.22;21935459;78;99577;-81
2021/09/27 14:35:27;;;;;;;12.15;7.95;;;;;;;22.96;58.97;100754.50;22236086;77;99529;-83
2021/09/27 15:05:28;;;;;;;17.42;7.37;;;;;;;21.86;62.39;100761.25;22559362;77;99633;-81
2021/09/27 15:35:29;;;;;;;18.02;8.50;;;;;;;21.47;64.47;100763.73;22400130;77;99457;-81
2021/09/27 16:05:30;;;;;;;16.37;8.10;;;;;;;21.03;65.92;100756.14;22326784;77;99507;-80
2021/09/27 16:35:32;;;;;;;14.28;6.95;;;;;;;20.34;67.72;100765.05;22144399;78;2080987;-80
2021/09/27 17:05:33;;;;;;;18.50;7.87;;;;;;;19.57;69.44;100774.30;22232873;77;115050;-80
2021/09/27 17:35:34;;;;;;;14.70;6.90;;;;;;;18.73;71.19;100798.91;21997187;78;99644;-80
2021/09/27 18:05:36;;;;;;;16.23;7.75;;;;;;;18.04;73.13;100810.47;21555897;79;99499;-80
2021/09/27 18:35:39;;;;;;;17.07;8.37;;;;;;;17.47;74.31;100817.31;21597407;80;100833;-81
2021/09/27 19:05:40;;;;;;;16.57;6.80;;;;;;;16.89;75.37;100827.78;22217378;78;131970;-82
2021/09/27 19:35:43;;;;;;;13.10;6.12;;;;;;;16.58;76.37;100837.14;22410867;76;99860;-81
2021/09/27 20:05:46;;;;;;;13.30;6.43;;;;;;;16.44;76.76;100849.72;21858756;77;99407;-81
2021/09/27 20:35:48;;;;;;;14.43;7.10;;;;;;;16.08;76.77;100848.31;21959747;79;99744;-82
2021/09/27 21:05:50;;;;;;;11.90;6.37;;;;;;;15.91;77.31;100860.29;22238170;77;99410;-82
2021/09/27 21:35:52;;;;;;;14.40;6.42;;;;;;;15.76;77.07;100862.91;22513437;77;99749;-80
2021/09/27 22:05:53;;;;;;;17.07;6.57;;;;;;;15.56;77.47;100877.83;22046741;78;99592;-85
2021/09/27 22:35:53;;;;;;;13.58;6.10;;;;;;;15.28;78.25;100876.45;22062553;78;128460;-85
2021/09/27 23:05:54;;;;;;;12.90;6.23;;;;;;;15.01;79.13;100875.28;22160257;78;99645;-86
2021/09/27 23:35:55;;;;;;;11.20;6.33;;;;;;;14.76;79.94;100887.50;22335852;77;99711;-85
